Time;durP1;ratioP1;P1;durP2;ratioP2;P2;SDS_P1;SDS_P2;PMS_P1;PMS_P2;Temp;Humidity;BMP_temperature;BMP_pressure;BME280_temperature;BME280_humidity;BME280_pressure;Samples;Min_cycle;Max_cycle;Signal;HPM_P1;HPM_P2
2023/08/25 00:03:40;;;;;;;2.57;1.20;;;;;;;23.48;61.95;100493.47;10414338;28;96880;-80
2023/08/25 00:08:44;;;;;;;2.08;1.30;;;;;;;23.52;61.95;100489.53;10400872;28;97553;-80
2023/08/25 00:13:47;;;;;;;2.30;1.55;;;;;;;23.42;62.17;100481.41;10373254;28;97676;-80
2023/08/25 00:18:52;;;;;;;3.73;1.50;;;;;;;23.35;62.18;100476.75;10371651;28;97803;-79
2023/08/25 00:23:56;;;;;;;2.80;1.45;;;;;;;23.34;62.04;100475.88;10413764;28;96963;-79
2023/08/25 00:28:59;;;;;;;5.03;1.83;;;;;;;23.45;61.64;100478.47;10411707;28;97194;-80
2023/08/25 00:34:04;;;;;;;2.23;1.70;;;;;;;23.52;61.74;100478.78;10413485;28;97808;-80
2023/08/25 00:39:08;;;;;;;2.00;1.30;;;;;;;23.37;61.83;100477.47;10413205;28;96752;-80
2023/08/25 00:44:12;;;;;;;3.40;1.50;;;;;;;23.21;62.17;100480.66;10412097;28;97013;-80
2023/08/25 00:49:22;;;;;;;4.13;1.30;;;;;;;23.18;62.38;100475.53;10411669;28;96809;-79
2023/08/25 00:54:30;;;;;;;2.72;1.50;;;;;;;23.24;61.75;100475.00;10412110;28;96785;-79
2023/08/25 00:59:34;;;;;;;2.53;1.50;;;;;;;22.74;63.16;100469.63;10400889;28;96623;-80
2023/08/25 01:04:40;;;;;;;3.17;1.70;;;;;;;22.96;62.72;100469.50;10372694;28;96946;-79
2023/08/25 01:09:46;;;;;;;5.47;1.55;;;;;;;23.03;62.09;100454.56;10371182;28;96807;-80
2023/08/25 01:14:58;;;;;;;1.90;1.40;;;;;;;22.94;62.82;100466.13;10370894;28;96727;-80
2023/08/25 01:20:07;;;;;;;3.15;1.83;;;;;;;22.97;62.63;100468.53;10379906;28;96846;-80
2023/08/25 01:25:24;;;;;;;2.88;1.50;;;;;;;23.01;62.57;100468.13;10411856;28;96709;-80
2023/08/25 01:30:30;;;;;;;3.65;1.77;;;;;;;22.85;62.71;100472.28;10411922;28;96752;-80
2023/08/25 01:35:46;;;;;;;2.92;1.33;;;;;;;22.86;62.50;100460.56;10383047;28;97315;-79
2023/08/25 01:40:57;;;;;;;2.80;1.50;;;;;;;22.52;63.46;100462.59;10370279;28;96765;-79
2023/08/25 01:46:00;;;;;;;2.72;1.17;;;;;;;22.48;63.55;100466.50;10369663;28;97104;-80
2023/08/25 01:51:04;;;;;;;1.83;1.10;;;;;;;22.45;63.19;100472.97;10370405;28;96771;-80
2023/08/25 01:56:09;;;;;;;2.17;1.50;;;;;;;22.49;63.13;100471.75;10370547;28;97680;-80
2023/08/25 02:01:12;;;;;;;2.42;1.48;;;;;;;22.43;63.55;100472.28;10375771;28;96960;-80
2023/08/25 02:06:15;;;;;;;4.10;1.83;;;;;;;22.35;63.63;100480.09;10377060;28;97473;-80
2023/08/25 02:11:20;;;;;;;2.28;1.27;;;;;;;22.27;64.00;100477.22;10375474;28;96839;-80
2023/08/25 02:16:23;;;;;;;2.50;1.50;;;;;;;22.48;63.40;100475.41;10375659;28;97270;-80
2023/08/25 02:21:27;;;;;;;2.80;1.30;;;;;;;21.90;64.96;100475.88;10398095;28;97931;-80
2023/08/25 02:26:32;;;;;;;2.42;1.58;;;;;;;21.95;64.85;100467.47;10389382;28;96768;-80
2023/08/25 02:31:35;;;;;;;5.10;1.65;;;;;;;22.08;64.74;100479.75;10375360;28;96700;-79
2023/08/25 02:36:39;;;;;;;3.08;1.92;;;;;;;21.79;65.25;100473.25;10375512;28;96733;-79
2023/08/25 02:41:43;;;;;;;2.90;1.55;;;;;;;21.96;64.91;100470.00;10376176;28;97560;-80
2023/08/25 02:46:47;;;;;;;3.13;1.50;;;;;;;22.11;64.06;100474.13;10375533;28;96595;-79
2023/08/25 02:51:51;;;;;;;3.53;1.73;;;;;;;22.12;64.06;100470.47;10375066;28;96793;-80
2023/08/25 02:56:55;;;;;;;1.58;1.23;;;;;;;22.11;64.17;100483.97;10374914;28;96683;-79
2023/08/25 03:01:59;;;;;;;5.03;1.52;;;;;;;22.45;63.11;100470.28;10374475;28;96717;-79
2023/08/25 03:07:02;;;;;;;3.22;1.65;;;;;;;22.12;64.06;100469.63;10374488;28;97940;-79
2023/08/25 03:12:07;;;;;;;5.18;1.63;;;;;;;22.18;64.11;100466.41;10373502;28;97305;-80
2023/08/25 03:17:11;;;;;;;3.53;1.75;;;;;;;22.46;62.89;100463.09;10373992;28;96688;-80
2023/08/25 03:22:14;;;;;;;3.65;1.73;;;;;;;22.57;62.53;100461.19;10402697;28;97151;-79
2023/08/25 03:27:18;;;;;;;2.97;1.75;;;;;;;22.53;62.94;100458.91;10415436;28;96841;-79
2023/08/25 03:32:22;;;;;;;3.22;1.85;;;;;;;22.61;62.69;100459.09;10404796;28;97078;-79
2023/08/25 03:37:25;;;;;;;1.85;1.30;;;;;;;22.55;62.73;100465.00;10374253;28;96654;-79
2023/08/25 03:42:30;;;;;;;3.10;1.60;;;;;;;22.57;62.57;100453.16;10373733;28;96603;-79
2023/08/25 03:47:33;;;;;;;4.28;1.40;;;;;;;22.30;63.01;100451.97;10372756;28;96663;-79
2023/08/25 03:52:36;;;;;;;5.97;1.45;;;;;;;22.08;64.17;100447.59;10375870;28;96735;-79
2023/08/25 03:57:41;;;;;;;3.45;1.77;;;;;;;22.10;63.77;100466.22;10414494;28;97225;-79
2023/08/25 04:02:44;;;;;;;2.67;1.67;;;;;;;22.14;63.26;100455.09;10414485;28;97796;-79
2023/08/25 04:07:48;;;;;;;3.13;1.63;;;;;;;21.57;64.97;100453.69;10392219;28;97297;-79
2023/08/25 04:12:53;;;;;;;;;;;;;;;21.45;65.22;100447.50;10372777;28;96730;-79
2023/08/25 04:17:56;;;;;;;1.53;1.03;;;;;;;21.28;65.58;100453.38;10372070;28;97007;-79
2023/08/25 04:23:02;;;;;;;3.55;1.75;;;;;;;21.93;63.81;100439.94;10427403;27;97450;-79
2023/08/25 04:28:07;;;;;;;2.72;1.63;;;;;;;21.82;63.84;100434.63;10372669;28;96589;-79
2023/08/25 04:33:11;;;;;;;3.03;1.50;;;;;;;21.27;65.43;100438.28;10371672;28;96709;-79
2023/08/25 04:38:16;;;;;;;3.53;1.50;;;;;;;21.76;64.40;100435.13;10353331;28;96598;-79
2023/08/25 04:43:21;;;;;;;1.70;1.30;;;;;;;21.81;63.82;100435.59;10371090;28;97059;-79
2023/08/25 04:48:24;;;;;;;3.97;1.80;;;;;;;21.97;63.19;100436.03;10371287;28;97824;-79
2023/08/25 04:53:27;;;;;;;3.53;1.67;;;;;;;22.02;63.08;100434.69;10371551;28;97925;-79
2023/08/25 04:58:32;;;;;;;3.03;1.52;;;;;;;21.68;63.82;100443.78;10371607;28;96688;-79
2023/08/25 05:03:36;;;;;;;3.55;1.40;;;;;;;21.68;64.07;100443.78;10371136;28;96574;-79
2023/08/25 05:08:39;;;;;;;4.30;1.60;;;;;;;22.03;63.16;100444.44;10371085;28;97590;-79
2023/08/25 05:13:44;;;;;;;3.03;1.70;;;;;;;22.04;63.16;100440.78;10371321;28;97391;-79
2023/08/25 05:18:47;;;;;;;3.17;1.45;;;;;;;21.69;63.92;100450.88;10370699;28;97901;-79
2023/08/25 05:24:11;;;;;;;2.53;1.58;;;;;;;21.64;64.33;100436.16;10412145;28;96801;-79
2023/08/25 05:29:16;;;;;;;2.17;1.50;;;;;;;21.33;64.65;100449.34;10370074;28;96717;-79
2023/08/25 05:34:19;;;;;;;1.88;1.40;;;;;;;21.30;64.76;100454.09;10373168;28;97630;-79
2023/08/25 05:39:22;;;;;;;2.85;1.42;;;;;;;21.28;65.12;100450.69;10377648;28;97321;-79
2023/08/25 05:44:27;;;;;;;1.92;1.30;;;;;;;21.50;64.25;100454.19;10377201;28;96594;-79
2023/08/25 05:49:30;;;;;;;1.67;1.40;;;;;;;21.50;64.31;100456.03;10377517;28;96887;-80
2023/08/25 05:54:34;;;;;;;3.15;1.73;;;;;;;21.47;64.50;100465.16;10376739;28;96717;-79
2023/08/25 05:59:38;;;;;;;3.55;1.60;;;;;;;21.35;64.98;100467.97;10376549;28;96800;-80
2023/08/25 06:04:42;;;;;;;3.60;1.50;;;;;;;21.30;65.01;100472.84;10377012;28;96760;-80
2023/08/25 06:09:45;;;;;;;1.92;1.48;;;;;;;21.27;65.36;100473.09;10377301;28;97671;-79
2023/08/25 06:14:52;;;;;;;3.22;1.40;;;;;;;21.40;65.08;100485.34;10376361;28;96725;-79
2023/08/25 06:19:55;;;;;;;3.70;2.08;;;;;;;21.53;64.71;100482.56;10384802;28;97054;-80
2023/08/25 06:24:59;;;;;;;3.20;1.58;;;;;;;21.44;65.06;100480.63;10384684;28;96847;-80
2023/08/25 06:30:04;;;;;;;2.85;1.67;;;;;;;21.60;64.81;100470.38;10375392;28;97104;-80
2023/08/25 06:35:08;;;;;;;3.33;1.90;;;;;;;21.42;65.60;100480.75;10375674;28;97512;-80
2023/08/25 06:40:12;;;;;;;3.35;1.60;;;;;;;21.76;65.41;100494.91;10375830;28;96664;-80
2023/08/25 06:45:17;;;;;;;5.07;2.03;;;;;;;22.00;64.84;100501.00;10374248;28;96708;-79
2023/08/25 06:50:20;;;;;;;2.55;1.55;;;;;;;22.22;64.57;100500.91;10374994;28;97487;-79
2023/08/25 06:55:25;;;;;;;3.40;1.65;;;;;;;22.27;64.34;100525.50;10395003;28;96867;-80
2023/08/25 07:00:30;;;;;;;4.63;2.08;;;;;;;22.37;63.92;100521.06;10375380;28;96662;-79
2023/08/25 07:05:33;;;;;;;3.28;1.73;;;;;;;22.20;64.43;100523.44;10373981;28;96852;-80
2023/08/25 07:10:37;;;;;;;3.73;1.90;;;;;;;22.33;64.51;100518.78;10374002;28;96786;-80
2023/08/25 07:15:43;;;;;;;3.13;1.70;;;;;;;23.23;62.65;100523.47;10373697;28;97613;-79
2023/08/25 07:20:46;;;;;;;3.70;1.73;;;;;;;23.15;62.88;100531.34;10390251;28;96804;-80
2023/08/25 07:25:53;;;;;;;3.43;2.10;;;;;;;23.63;61.59;100527.06;10415737;28;97211;-80
2023/08/25 07:30:59;;;;;;;2.40;1.63;;;;;;;24.22;60.74;100522.50;10400498;28;97550;-79
2023/08/25 07:36:04;;;;;;;2.22;1.70;;;;;;;24.74;59.59;100529.28;10373586;28;97553;-79
2023/08/25 07:41:07;;;;;;;2.80;1.80;;;;;;;25.05;58.98;100532.69;10373494;28;96587;-80
2023/08/25 07:46:11;;;;;;;3.17;1.80;;;;;;;25.82;57.35;100536.78;10373975;28;97148;-80
2023/08/25 07:51:16;;;;;;;5.15;2.60;;;;;;;25.78;57.67;100538.06;10374095;28;96808;-80
2023/08/25 07:56:32;;;;;;;2.72;1.70;;;;;;;25.90;57.11;100544.97;10372558;28;96822;-80
2023/08/25 08:01:38;;;;;;;2.88;1.45;;;;;;;25.57;57.35;100553.63;10372959;28;96907;-79
2023/08/25 08:06:41;;;;;;;4.78;2.13;;;;;;;25.15;58.03;100560.44;10372348;28;96843;-79
2023/08/25 08:11:44;;;;;;;3.13;1.90;;;;;;;24.65;58.91;100562.47;10372796;28;97895;-79
2023/08/25 08:16:49;;;;;;;3.73;2.00;;;;;;;24.28;59.78;100559.63;10371837;28;97883;-79
2023/08/25 08:21:53;;;;;;;3.65;2.10;;;;;;;23.78;61.02;100557.09;10383591;28;97373;-79
2023/08/25 08:26:56;;;;;;;2.45;1.80;;;;;;;23.50;61.99;100564.03;10372336;28;96874;-79
2023/08/25 08:32:04;;;;;;;3.05;2.20;;;;;;;23.78;61.03;100567.84;10372209;28;97667;-79
2023/08/25 08:37:07;;;;;;;3.30;1.85;;;;;;;23.60;61.18;100568.50;10371546;28;97851;-79
2023/08/25 08:42:14;;;;;;;5.27;2.23;;;;;;;23.61;61.87;100561.28;10414050;28;96838;-80
2023/08/25 08:47:18;;;;;;;3.45;2.17;;;;;;;23.87;60.92;100561.66;10413188;28;96953;-79
2023/08/25 08:52:22;;;;;;;3.97;1.92;;;;;;;23.89;60.93;100570.44;10413272;28;97549;-80
2023/08/25 08:57:26;;;;;;;6.03;2.50;;;;;;;23.79;61.57;100567.69;10410793;28;97763;-81
2023/08/25 09:02:35;;;;;;;4.22;2.08;;;;;;;23.82;61.71;100569.28;10412966;28;96921;-80
2023/08/25 09:07:40;;;;;;;4.70;2.72;;;;;;;23.94;61.27;100565.50;10413502;27;96612;-80
2023/08/25 09:12:45;;;;;;;4.95;2.13;;;;;;;24.09;61.08;100577.53;10419098;28;96789;-80
2023/08/25 09:17:59;;;;;;;4.07;2.07;;;;;;;24.12;61.09;100575.44;10419361;28;97317;-80
2023/08/25 09:23:04;;;;;;;2.97;1.98;;;;;;;23.98;61.86;100567.75;10455674;27;97524;-80
2023/08/25 09:28:06;;;;;;;;;;;;;;;23.97;62.49;100566.06;10461482;27;97766;-80
2023/08/25 09:33:14;;;;;;;3.38;2.20;;;;;;;23.99;62.22;100572.16;10419952;28;97388;-79
2023/08/25 09:38:24;;;;;;;5.90;2.40;;;;;;;24.11;62.19;100572.88;10418924;28;96625;-80
2023/08/25 09:43:30;;;;;;;5.05;2.65;;;;;;;24.16;61.93;100576.84;10419037;28;97688;-81
2023/08/25 09:48:36;;;;;;;5.57;2.35;;;;;;;24.42;61.67;100571.81;10416018;28;96925;-79
2023/08/25 09:53:42;;;;;;;3.33;2.08;;;;;;;24.65;61.02;100566.00;10418237;28;97437;-79
2023/08/25 09:58:46;;;;;;;4.43;2.30;;;;;;;24.77;60.68;100574.78;10418409;28;96682;-79
2023/08/25 10:03:52;;;;;;;4.03;2.50;;;;;;;24.97;60.18;100564.81;10404196;28;96776;-79
2023/08/25 10:08:56;;;;;;;3.10;2.15;;;;;;;25.17;59.75;100558.47;10376575;28;97176;-79
2023/08/25 10:14:04;;;;;;;3.75;2.58;;;;;;;25.24;59.57;100564.97;10376494;28;96837;-80
2023/08/25 10:19:13;;;;;;;4.20;2.20;;;;;;;25.29;59.17;100566.22;10377623;28;97923;-79
2023/08/25 10:24:19;;;;;;;4.10;2.38;;;;;;;25.61;58.77;100568.50;10376965;28;96847;-80
2023/08/25 10:29:25;;;;;;;3.38;2.25;;;;;;;25.59;58.53;100573.19;10375785;28;96938;-81
2023/08/25 10:34:34;;;;;;;3.70;2.28;;;;;;;25.52;58.77;100559.44;10375941;28;97501;-80
2023/08/25 10:39:48;;;;;;;5.32;2.42;;;;;;;25.92;57.06;100563.72;10375034;28;96770;-80
2023/08/25 10:44:56;;;;;;;2.70;1.80;;;;;;;27.22;53.93;100559.38;10375536;28;96638;-81
2023/08/25 10:50:04;;;;;;;4.30;2.10;;;;;;;28.37;51.97;100564.13;10374988;28;96612;-81
2023/08/25 10:55:26;;;;;;;3.28;2.05;;;;;;;28.81;50.28;100557.41;10375931;28;98459;-81
2023/08/25 11:00:33;;;;;;;2.55;1.70;;;;;;;29.57;49.16;100542.41;10374890;28;96709;-82
2023/08/25 11:05:45;;;;;;;3.65;1.90;;;;;;;29.89;46.76;100522.41;10375016;28;96891;-82
2023/08/25 11:11:09;;;;;;;3.53;2.15;;;;;;;30.18;45.79;100515.31;10375226;28;96814;-80
2023/08/25 11:16:14;;;;;;;2.10;1.70;;;;;;;30.65;45.95;100506.97;10374925;28;97308;-80
2023/08/25 11:21:23;;;;;;;3.28;1.48;;;;;;;30.33;45.50;100496.41;10395255;28;96776;-80
2023/08/25 11:26:26;;;;;;;3.05;1.63;;;;;;;29.90;46.60;100494.28;10415815;28;96695;-83
2023/08/25 11:31:30;;;;;;;3.13;1.77;;;;;;;30.38;45.25;100493.97;10377288;28;96582;-81
2023/08/25 11:36:36;;;;;;;3.80;1.67;;;;;;;30.68;44.83;100478.66;10373753;28;96708;-80
2023/08/25 11:41:39;;;;;;;3.05;1.90;;;;;;;30.68;45.14;100468.59;10373917;28;96899;-82
2023/08/25 11:46:42;;;;;;;;;;;;;;;30.54;44.50;100466.66;10384698;22;98135;-81
2023/08/25 11:51:49;;;;;;;3.00;1.97;;;;;;;30.71;44.50;100467.41;10420029;27;96812;-79
2023/08/25 11:56:53;;;;;;;3.28;1.92;;;;;;;30.51;45.02;100453.44;10436999;27;96589;-81
2023/08/25 12:02:01;;;;;;;4.63;1.80;;;;;;;30.32;44.80;100450.41;10407960;28;96795;-81
2023/08/25 12:07:11;;;;;;;2.38;1.52;;;;;;;30.27;45.22;100443.66;10380437;27;97088;-81
2023/08/25 12:12:14;;;;;;;5.35;1.83;;;;;;;29.92;45.78;100448.78;10456518;27;96593;-82
2023/08/25 12:17:21;;;;;;;;;;;;;;;29.96;45.29;100434.69;10456017;27;96911;-81
2023/08/25 12:22:29;;;;;;;2.92;1.50;;;;;;;29.84;46.36;100435.28;10382823;27;97849;-82
2023/08/25 12:27:35;;;;;;;3.60;1.77;;;;;;;29.53;46.69;100427.16;10372211;28;96627;-80
2023/08/25 12:32:39;;;;;;;4.40;2.10;;;;;;;29.77;46.38;100415.31;10371890;28;96883;-81
2023/08/25 12:37:44;;;;;;;;;;;;;;;29.67;46.62;100403.84;10372666;28;97122;-81
2023/08/25 12:42:51;;;;;;;3.17;1.92;;;;;;;29.64;46.19;100401.50;10370518;28;97191;-80
2023/08/25 12:47:54;;;;;;;2.38;1.80;;;;;;;30.00;45.79;100389.03;10409795;28;98479;-80
2023/08/25 12:53:00;;;;;;;2.85;1.83;;;;;;;30.00;45.65;100381.75;10405808;28;96770;-80
2023/08/25 12:58:03;;;;;;;3.15;2.05;;;;;;;30.52;45.50;100389.97;10408445;28;97446;-80
2023/08/25 13:03:06;;;;;;;3.70;1.95;;;;;;;30.49;44.74;100374.00;10412965;28;96746;-80
2023/08/25 13:08:11;;;;;;;2.58;1.45;;;;;;;30.58;44.80;100367.47;10412680;28;96652;-80
2023/08/25 13:13:15;;;;;;;3.25;1.80;;;;;;;30.95;43.69;100363.84;10377209;28;97424;-81
2023/08/25 13:18:18;;;;;;;2.40;1.70;;;;;;;30.84;44.46;100358.88;10370213;28;96882;-80
2023/08/25 13:23:22;;;;;;;;;;;;;;;30.96;43.18;100352.78;10371168;28;96782;-80
2023/08/25 13:28:41;;;;;;;3.10;1.50;;;;;;;31.16;43.00;100342.19;10371251;28;97409;-81
2023/08/25 13:33:44;;;;;;;;;;;;;;;30.80;43.18;100338.56;10371101;28;97530;-80
2023/08/25 13:38:48;;;;;;;3.73;1.83;;;;;;;30.69;43.38;100334.44;10370312;28;96790;-80
2023/08/25 13:43:52;;;;;;;2.47;1.70;;;;;;;30.80;43.45;100324.97;10376337;28;96940;-82
2023/08/25 13:48:55;;;;;;;;;;;;;;;30.96;42.27;100322.88;10412456;28;96878;-80
2023/08/25 13:54:00;;;;;;;3.50;1.93;;;;;;;31.09;42.09;100320.34;10413224;27;96798;-80
2023/08/25 13:59:05;;;;;;;4.63;2.38;;;;;;;30.61;43.18;100301.88;10418614;28;97187;-80
2023/08/25 14:04:08;;;;;;;;;;;;;;;30.50;41.98;100305.09;10384631;28;97475;-81
2023/08/25 14:09:13;;;;;;;4.93;1.42;;;;;;;30.75;42.08;100311.94;10376957;28;96712;-80
2023/08/25 14:14:16;;;;;;;2.88;1.80;;;;;;;30.78;42.08;100300.72;10376551;28;97046;-82
2023/08/25 14:19:19;;;;;;;;;;;;;;;30.95;40.60;100295.91;10376914;28;96989;-81
2023/08/25 14:24:24;;;;;;;5.35;2.10;;;;;;;31.13;41.18;100299.88;10376427;28;96882;-80
2023/08/25 14:29:30;;;;;;;2.40;1.45;;;;;;;31.22;41.65;100298.75;10375953;28;96742;-82
2023/08/25 14:34:34;;;;;;;3.08;1.90;;;;;;;30.99;41.25;100297.22;10376218;28;96784;-80
2023/08/25 14:39:38;;;;;;;2.42;1.75;;;;;;;30.93;42.09;100293.38;10376278;28;96639;-81
2023/08/25 14:44:42;;;;;;;4.65;1.95;;;;;;;31.19;41.87;100284.69;10388780;28;96749;-80
2023/08/25 14:49:45;;;;;;;3.00;1.60;;;;;;;31.51;41.59;100275.22;10416123;28;97574;-82
2023/08/25 14:54:50;;;;;;;5.40;1.90;;;;;;;31.39;41.79;100274.88;10385167;28;97486;-82
2023/08/25 14:59:53;;;;;;;3.15;2.08;;;;;;;31.29;41.23;100260.78;10374639;28;96605;-82
2023/08/25 15:04:57;;;;;;;3.13;1.63;;;;;;;30.96;42.27;100271.25;10373999;28;96754;-81
2023/08/25 15:10:04;;;;;;;3.28;2.03;;;;;;;30.96;42.89;100265.81;10374779;28;96811;-80
2023/08/25 15:15:08;;;;;;;2.90;1.95;;;;;;;30.93;43.33;100265.34;10374465;28;96802;-83
2023/08/25 15:20:12;;;;;;;4.60;2.58;;;;;;;31.05;43.02;100256.50;10373938;28;96960;-82
2023/08/25 15:25:17;;;;;;;3.00;2.10;;;;;;;31.05;43.81;100256.50;10374030;28;96761;-82
2023/08/25 15:30:21;;;;;;;3.70;2.40;;;;;;;30.90;44.04;100247.56;10374538;28;97034;-80
2023/08/25 15:35:27;;;;;;;3.30;2.20;;;;;;;30.73;44.36;100242.53;10373811;28;97579;-81
2023/08/25 15:40:33;;;;;;;3.15;2.30;;;;;;;30.34;45.24;100255.53;10373527;28;96824;-81
2023/08/25 15:45:38;;;;;;;3.95;2.50;;;;;;;30.21;45.71;100262.44;10415333;27;96958;-82
2023/08/25 15:50:46;;;;;;;3.75;2.33;;;;;;;30.00;46.05;100262.31;10456377;27;96837;-80
2023/08/25 15:55:51;;;;;;;3.78;2.53;;;;;;;29.71;46.58;100250.56;10426375;27;97687;-81
2023/08/25 16:00:59;;;;;;;2.75;1.90;;;;;;;29.73;46.29;100262.03;10373616;28;97033;-80
2023/08/25 16:06:04;;;;;;;5.15;2.22;;;;;;;29.81;46.81;100253.84;10372882;28;97654;-82
2023/08/25 16:11:09;;;;;;;3.70;2.28;;;;;;;29.67;46.76;100254.66;10385436;28;97196;-81
2023/08/25 16:16:13;;;;;;;4.65;2.28;;;;;;;29.39;47.05;100259.75;10433862;27;96735;-82
2023/08/25 16:21:16;;;;;;;3.33;2.28;;;;;;;29.42;47.07;100255.81;10372944;28;96639;-82
2023/08/25 16:26:24;;;;;;;3.33;1.98;;;;;;;29.02;47.85;100252.38;10372470;28;96786;-80
2023/08/25 16:31:27;;;;;;;2.70;1.90;;;;;;;28.94;47.69;100262.41;10372039;28;96912;-81
2023/08/25 16:36:31;;;;;;;3.30;1.98;;;;;;;28.81;48.09;100259.41;10370552;28;96736;-82
2023/08/25 16:41:36;;;;;;;4.65;2.28;;;;;;;28.74;48.11;100261.16;10372076;28;96981;-82
2023/08/25 16:46:39;;;;;;;3.55;1.90;;;;;;;28.69;48.32;100255.41;10408672;27;96922;-81
2023/08/25 16:51:42;;;;;;;5.05;2.25;;;;;;;28.69;48.08;100271.66;10399832;28;97102;-81
2023/08/25 16:56:47;;;;;;;3.13;1.70;;;;;;;28.56;48.44;100260.53;10370435;28;96778;-80
2023/08/25 17:01:51;;;;;;;2.67;1.73;;;;;;;28.38;48.53;100266.16;10371045;28;97446;-80
2023/08/25 17:06:54;;;;;;;3.90;1.80;;;;;;;28.33;48.92;100267.69;10370778;28;96604;-81
2023/08/25 17:11:59;;;;;;;2.35;1.65;;;;;;;28.22;48.94;100260.75;10372202;28;96667;-82
2023/08/25 17:17:03;;;;;;;2.35;1.48;;;;;;;28.15;49.53;100262.50;10380414;28;97066;-80
2023/08/25 17:22:06;;;;;;;3.28;1.80;;;;;;;28.08;49.69;100256.09;10411982;28;97183;-81
2023/08/25 17:27:11;;;;;;;1.95;1.30;;;;;;;27.69;50.12;100255.09;10408582;28;96890;-79
2023/08/25 17:32:15;;;;;;;2.80;1.88;;;;;;;27.73;50.35;100260.00;10417860;28;96989;-82
2023/08/25 17:37:19;;;;;;;3.83;2.15;;;;;;;27.70;50.35;100264.91;10419043;28;96730;-79
2023/08/25 17:42:23;;;;;;;2.15;1.45;;;;;;;27.44;50.34;100275.84;10408453;28;97331;-81
2023/08/25 17:47:27;;;;;;;1.92;1.17;;;;;;;27.58;50.56;100277.88;10404028;27;97244;-81
2023/08/25 17:52:30;;;;;;;;;;;;;;;27.44;50.48;100288.53;10377447;28;97657;-82
2023/08/25 17:57:36;;;;;;;2.05;1.20;;;;;;;27.47;50.17;100294.44;10376982;28;96873;-79
2023/08/25 18:02:39;;;;;;;2.72;1.60;;;;;;;27.43;50.04;100298.47;10378199;28;96865;-81
2023/08/25 18:07:43;;;;;;;2.90;1.63;;;;;;;27.30;50.91;100291.88;10376506;28;96992;-81
2023/08/25 18:12:48;;;;;;;3.25;1.55;;;;;;;27.14;50.88;100294.53;10376359;28;96830;-80
2023/08/25 18:17:51;;;;;;;2.95;1.80;;;;;;;26.94;51.48;100302.88;10392481;28;97757;-81
2023/08/25 18:22:54;;;;;;;2.78;1.60;;;;;;;26.94;51.66;100305.59;10417858;28;96756;-81
2023/08/25 18:28:00;;;;;;;3.00;1.50;;;;;;;27.00;51.80;100313.06;10417412;28;96646;-80
2023/08/25 18:33:04;;;;;;;1.98;1.50;;;;;;;26.87;51.97;100307.25;10409657;28;96824;-79
2023/08/25 18:38:08;;;;;;;3.30;1.42;;;;;;;26.65;51.98;100310.53;10375415;28;96720;-81
2023/08/25 18:43:13;;;;;;;2.17;1.48;;;;;;;26.65;52.02;100318.63;10376408;28;97045;-80
2023/08/25 18:48:16;;;;;;;2.78;1.88;;;;;;;26.52;52.40;100315.53;10416244;28;97699;-81
2023/08/25 18:53:20;;;;;;;3.95;1.67;;;;;;;26.48;51.85;100305.22;10382554;28;96815;-80
2023/08/25 18:58:25;;;;;;;1.80;1.40;;;;;;;26.37;52.25;100311.72;10408868;28;96800;-78
2023/08/25 19:03:28;;;;;;;2.80;2.03;;;;;;;26.16;53.13;100305.81;10416446;28;96689;-79
2023/08/25 19:08:32;;;;;;;2.30;1.67;;;;;;;26.05;53.01;100319.59;10395231;28;97473;-80
2023/08/25 19:13:37;;;;;;;3.05;1.90;;;;;;;25.95;53.17;100318.84;10374588;28;96551;-80
2023/08/25 19:18:40;;;;;;;1.85;1.60;;;;;;;25.85;53.13;100327.00;10374177;28;96776;-81
2023/08/25 19:23:44;;;;;;;;;;;;;;;25.59;54.49;100334.16;10410746;28;96752;-79
2023/08/25 19:28:48;;;;;;;2.50;1.42;;;;;;;25.35;54.38;100325.81;10374088;28;96839;-81
2023/08/25 19:33:54;;;;;;;3.35;1.80;;;;;;;25.33;54.38;100325.13;10373805;28;97022;-81
2023/08/25 19:38:58;;;;;;;2.22;1.55;;;;;;;25.19;54.75;100322.94;10373455;28;97068;-81
2023/08/25 19:44:03;;;;;;;2.78;1.42;;;;;;;25.10;55.36;100329.28;10374860;28;96738;-80
2023/08/25 19:49:07;;;;;;;3.40;1.95;;;;;;;24.91;55.39;100341.94;10407571;27;96720;-80
2023/08/25 19:54:10;;;;;;;3.17;1.40;;;;;;;24.80;55.78;100335.78;10414117;27;97292;-81
2023/08/25 19:59:15;;;;;;;1.17;0.93;;;;;;;24.75;55.63;100356.06;10395980;28;96834;-81
2023/08/25 20:04:18;;;;;;;1.65;1.27;;;;;;;24.64;55.49;100353.53;10372513;28;96852;-81
2023/08/25 20:09:22;;;;;;;2.30;1.50;;;;;;;24.50;55.88;100360.25;10372789;28;97534;-81
2023/08/25 20:14:26;;;;;;;2.47;1.60;;;;;;;24.52;55.54;100362.78;10373336;28;97032;-82
2023/08/25 20:19:30;;;;;;;1.83;1.17;;;;;;;24.36;56.05;100371.47;10377819;28;96767;-81
2023/08/25 20:24:33;;;;;;;3.43;1.37;;;;;;;24.32;55.79;100386.22;10414289;28;96714;-80
2023/08/25 20:29:38;;;;;;;1.90;1.30;;;;;;;24.14;56.23;100385.22;10413400;28;98023;-81
2023/08/25 20:34:41;;;;;;;3.13;1.33;;;;;;;24.18;56.03;100385.78;10384932;28;96789;-81
2023/08/25 20:39:45;;;;;;;2.37;1.40;;;;;;;24.15;55.93;100392.28;10371394;28;96806;-79
2023/08/25 20:44:49;;;;;;;2.00;1.00;;;;;;;24.17;55.54;100398.34;10371831;28;96722;-80
2023/08/25 20:49:53;;;;;;;3.72;1.52;;;;;;;24.11;55.72;100415.09;10379063;28;96868;-80
2023/08/25 20:54:56;;;;;;;2.50;1.30;;;;;;;23.94;55.80;100431.06;10371509;28;96614;-80
2023/08/25 21:00:01;;;;;;;2.77;1.13;;;;;;;23.99;55.69;100432.34;10370869;28;96901;-81
2023/08/25 21:05:05;;;;;;;2.20;1.27;;;;;;;23.86;55.93;100442.50;10369892;28;96710;-80
2023/08/25 21:10:09;;;;;;;3.38;1.90;;;;;;;;;;10370897;28;96616;-82
2023/08/25 21:15:14;;;;;;;;;;;;;;;23.94;55.76;100466.03;10371337;28;96976;-80
2023/08/25 21:20:17;;;;;;;2.15;1.20;;;;;;;23.88;55.73;100485.38;10382982;28;97676;-81
2023/08/25 21:25:21;;;;;;;3.60;1.20;;;;;;;23.86;55.83;100487.38;10386259;28;96744;-80
2023/08/25 21:30:26;;;;;;;1.40;1.00;;;;;;;23.74;55.83;100483.94;10370526;28;96911;-79
2023/08/25 21:35:31;;;;;;;2.53;1.40;;;;;;;23.76;55.36;100490.03;10370768;28;96642;-80
2023/08/25 21:40:37;;;;;;;3.35;1.52;;;;;;;23.86;55.35;100501.66;10369755;28;96725;-79
2023/08/25 21:45:45;;;;;;;1.75;1.17;;;;;;;23.84;55.55;100486.66;10370022;28;97266;-79
2023/08/25 21:50:49;;;;;;;2.88;1.27;;;;;;;23.97;55.39;100501.53;10387495;28;96826;-79
2023/08/25 21:55:52;;;;;;;1.93;1.20;;;;;;;24.03;55.43;100489.38;10411214;28;97948;-79
2023/08/25 22:01:05;;;;;;;1.53;1.10;;;;;;;24.03;55.41;100486.69;10371115;28;96800;-79
2023/08/25 22:06:08;;;;;;;2.35;1.10;;;;;;;24.08;55.21;100496.00;10369594;28;96919;-80
2023/08/25 22:11:16;;;;;;;2.47;1.13;;;;;;;24.05;55.30;100496.31;10369517;28;97741;-79
2023/08/25 22:16:21;;;;;;;2.38;1.48;;;;;;;24.02;55.21;100483.16;10373162;28;96827;-79
2023/08/25 22:21:25;;;;;;;3.38;1.27;;;;;;;24.23;54.57;100475.78;10397710;28;96778;-79
2023/08/25 22:26:28;;;;;;;3.27;1.37;;;;;;;24.21;54.72;100458.09;10417570;28;97229;-79
2023/08/25 22:31:33;;;;;;;2.40;1.30;;;;;;;24.02;55.14;100439.28;10404933;28;97349;-79
2023/08/25 22:36:37;;;;;;;2.45;1.40;;;;;;;24.02;54.86;100415.94;10375609;28;97502;-79
2023/08/25 22:41:40;;;;;;;4.43;1.23;;;;;;;23.93;55.15;100395.25;10375476;28;96577;-79
2023/08/25 22:46:45;;;;;;;2.43;1.30;;;;;;;23.82;55.35;100384.69;10375105;28;96741;-79
2023/08/25 22:51:48;;;;;;;2.63;1.20;;;;;;;23.81;55.32;100374.91;10386136;28;97273;-79
2023/08/25 22:56:51;;;;;;;2.87;1.40;;;;;;;23.54;56.01;100382.81;10416717;28;97688;-79
2023/08/25 23:01:56;;;;;;;2.50;1.23;;;;;;;23.35;56.28;100375.56;10416407;28;96692;-79
2023/08/25 23:06:59;;;;;;;4.00;1.52;;;;;;;23.28;56.43;100373.53;10416299;28;96670;-79
2023/08/25 23:12:03;;;;;;;2.87;1.50;;;;;;;23.28;56.37;100357.44;10416270;28;97389;-79
2023/08/25 23:17:08;;;;;;;3.27;1.17;;;;;;;23.28;56.51;100358.28;10415199;28;96738;-79
2023/08/25 23:22:12;;;;;;;1.92;1.25;;;;;;;23.34;56.32;100364.91;10401577;28;97334;-79
2023/08/25 23:27:16;;;;;;;3.95;1.50;;;;;;;23.25;56.17;100366.59;10373415;28;97830;-79
2023/08/25 23:32:20;;;;;;;3.43;1.70;;;;;;;23.36;56.16;100362.94;10374264;28;96843;-79